createdAt,value
2023-03-29T00:02:19.858Z,6.38
2023-03-29T00:04:47.123Z,4.22
2023-03-29T00:07:14.278Z,4.45
2023-03-29T00:09:41.620Z,5.57
2023-03-29T00:12:08.605Z,4.95
2023-03-29T00:14:37.231Z,3.85
2023-03-29T00:17:04.470Z,3.95
2023-03-29T00:19:35.814Z,3.67
2023-03-29T00:22:06.617Z,4.70
2023-03-29T00:24:33.729Z,3.78
2023-03-29T00:27:01.109Z,5.15
2023-03-29T00:29:28.606Z,3.85
2023-03-29T00:31:56.236Z,4.80
2023-03-29T00:34:25.099Z,3.63
2023-03-29T00:36:53.230Z,3.75
2023-03-29T00:39:21.274Z,5.30
2023-03-29T00:41:49.740Z,4.03
2023-03-29T00:44:54.047Z,4.00
2023-03-29T00:47:34.769Z,4.65
2023-03-29T00:50:08.729Z,3.97
2023-03-29T00:52:36.232Z,6.22
2023-03-29T00:55:11.081Z,4.65
2023-03-29T00:57:40.532Z,6.05
2023-03-29T01:00:10.243Z,4.35
2023-03-29T01:02:40.053Z,6.00
2023-03-29T01:05:25.293Z,3.85
2023-03-29T01:08:11.249Z,4.07
2023-03-29T01:10:44.851Z,3.78
2023-03-29T01:13:18.195Z,3.78
2023-03-29T01:15:47.095Z,4.63
2023-03-29T01:18:14.647Z,3.70
2023-03-29T01:21:08.037Z,6.10
2023-03-29T01:23:48.328Z,5.07
2023-03-29T01:26:36.105Z,3.83
2023-03-29T01:29:14.362Z,4.07
2023-03-29T01:31:47.799Z,3.45
2023-03-29T01:34:34.948Z,3.13
2023-03-29T01:37:08.314Z,3.92
2023-03-29T01:39:35.751Z,3.63
2023-03-29T01:42:30.358Z,4.40
2023-03-29T01:45:10.057Z,3.40
2023-03-29T01:47:57.823Z,4.72
2023-03-29T01:50:48.649Z,3.88
2023-03-29T01:53:36.604Z,2.83
2023-03-29T01:56:26.515Z,3.53
2023-03-29T01:59:04.289Z,3.38
2023-03-29T02:01:40.897Z,3.85
2023-03-29T02:04:13.499Z,4.40
2023-03-29T02:06:42.110Z,3.38
2023-03-29T02:09:09.656Z,3.85
2023-03-29T02:11:37.086Z,3.63
2023-03-29T02:14:04.112Z,5.85
2023-03-29T02:16:39.126Z,4.10
2023-03-29T02:19:07.948Z,5.70
2023-03-29T02:21:49.170Z,3.17
2023-03-29T02:24:19.170Z,4.22
2023-03-29T02:26:46.516Z,4.07
2023-03-29T02:29:14.252Z,3.67
2023-03-29T02:31:47.832Z,3.22
2023-03-29T02:34:37.700Z,5.22
2023-03-29T02:37:10.422Z,3.70
2023-03-29T02:39:38.468Z,5.45
2023-03-29T02:42:06.508Z,4.80
2023-03-29T02:44:38.006Z,3.80
2023-03-29T02:47:13.870Z,7.03
2023-03-29T02:49:40.867Z,3.80
2023-03-29T02:52:14.399Z,3.15
2023-03-29T02:54:43.597Z,6.65
2023-03-29T02:57:10.959Z,4.40
2023-03-29T02:59:38.776Z,3.22
2023-03-29T03:02:05.796Z,3.47
2023-03-29T03:04:35.521Z,3.92
2023-03-29T03:07:04.854Z,4.13
2023-03-29T03:09:31.942Z,5.15
2023-03-29T03:11:58.914Z,3.80
2023-03-29T03:14:25.868Z,4.03
2023-03-29T03:16:52.925Z,4.32
2023-03-29T03:19:20.508Z,3.55
2023-03-29T03:21:47.626Z,6.35
2023-03-29T03:24:15.651Z,3.90
2023-03-29T03:26:43.632Z,4.40
2023-03-29T03:29:11.336Z,6.80
2023-03-29T03:31:41.235Z,3.85
2023-03-29T03:34:08.779Z,5.22
2023-03-29T03:36:35.900Z,9.95
2023-03-29T03:39:05.891Z,3.72
2023-03-29T03:41:33.966Z,4.70
2023-03-29T03:44:00.978Z,5.05
2023-03-29T03:46:29.481Z,5.00
2023-03-29T03:48:57.738Z,6.28
2023-03-29T03:51:24.776Z,4.60
2023-03-29T03:53:52.200Z,5.97
2023-03-29T03:56:20.584Z,4.72
2023-03-29T03:58:47.795Z,5.40
2023-03-29T04:01:14.812Z,4.72
2023-03-29T04:03:41.763Z,4.03
2023-03-29T04:06:09.843Z,3.35
2023-03-29T04:08:36.835Z,4.40
2023-03-29T04:11:04.763Z,4.10
2023-03-29T04:13:31.981Z,3.38
2023-03-29T04:16:01.416Z,6.13
2023-03-29T04:18:28.929Z,3.35
2023-03-29T04:20:55.951Z,4.85
2023-03-29T04:23:22.952Z,3.78
2023-03-29T04:25:50.208Z,3.10
2023-03-29T04:28:17.273Z,3.05
2023-03-29T04:30:46.751Z,4.75
2023-03-29T04:33:13.735Z,5.03
2023-03-29T04:35:40.734Z,3.88
2023-03-29T04:38:10.236Z,5.10
2023-03-29T04:40:38.488Z,4.28
2023-03-29T04:43:06.440Z,4.43
2023-03-29T04:45:33.340Z,3.83
2023-03-29T04:48:00.357Z,3.35
2023-03-29T04:50:27.648Z,4.20
2023-03-29T04:52:54.598Z,4.45
2023-03-29T04:55:21.568Z,4.55
2023-03-29T04:57:48.474Z,3.63
2023-03-29T05:00:16.900Z,4.15
2023-03-29T05:02:44.821Z,2.88
2023-03-29T05:05:12.572Z,4.05
2023-03-29T05:07:39.609Z,4.20
2023-03-29T05:10:07.195Z,5.78
2023-03-29T05:12:34.325Z,3.85
2023-03-29T05:15:01.453Z,3.40
2023-03-29T05:17:28.562Z,2.85
2023-03-29T05:19:55.500Z,4.18
2023-03-29T05:22:23.551Z,4.75
2023-03-29T05:24:51.640Z,6.22
2023-03-29T05:27:18.808Z,3.63
2023-03-29T05:29:45.789Z,5.65
2023-03-29T05:32:13.750Z,4.72
2023-03-29T05:34:41.553Z,4.45
2023-03-29T05:37:08.555Z,4.90
2023-03-29T05:39:37.819Z,5.82
2023-03-29T05:42:05.622Z,3.67
2023-03-29T05:44:32.860Z,4.93
2023-03-29T05:47:00.018Z,6.97
2023-03-29T05:49:27.235Z,6.15
2023-03-29T05:51:57.315Z,5.63
2023-03-29T05:54:25.530Z,6.20
2023-03-29T05:56:52.559Z,5.45
2023-03-29T05:59:19.882Z,7.75
2023-03-29T06:01:49.926Z,6.72
2023-03-29T06:04:18.236Z,8.07
2023-03-29T06:06:45.403Z,7.45
2023-03-29T06:09:12.491Z,5.75
2023-03-29T06:11:39.446Z,7.25
2023-03-29T06:14:06.696Z,7.28
2023-03-29T06:16:33.759Z,6.80
2023-03-29T06:19:00.841Z,7.22
2023-03-29T06:21:28.809Z,7.53
2023-03-29T06:23:55.757Z,9.30
2023-03-29T06:26:23.173Z,6.43
2023-03-29T06:28:52.081Z,12.93
2023-03-29T06:31:20.119Z,7.88
2023-03-29T06:33:47.295Z,9.75
2023-03-29T06:36:16.346Z,6.75
2023-03-29T06:38:45.926Z,10.75
2023-03-29T06:41:12.953Z,7.28
2023-03-29T06:43:40.011Z,10.95
2023-03-29T06:46:12.340Z,8.20
2023-03-29T06:48:41.212Z,7.28
2023-03-29T06:51:08.638Z,9.90
2023-03-29T06:53:36.776Z,8.30
2023-03-29T06:56:09.396Z,6.55
2023-03-29T06:58:37.117Z,6.78
2023-03-29T07:01:04.856Z,7.55
2023-03-29T07:03:35.076Z,8.63
2023-03-29T07:06:09.614Z,9.30
2023-03-29T07:08:43.549Z,7.20
2023-03-29T07:11:14.766Z,9.63
2023-03-29T07:13:42.737Z,7.85
2023-03-29T07:16:13.055Z,6.80
2023-03-29T07:18:41.849Z,10.60
2023-03-29T07:21:10.669Z,8.60
2023-03-29T07:23:38.122Z,8.00
2023-03-29T07:26:07.641Z,11.23
2023-03-29T07:28:38.047Z,7.85
2023-03-29T07:31:07.517Z,6.60
2023-03-29T07:33:35.386Z,10.43
2023-03-29T07:36:03.457Z,9.52
2023-03-29T07:38:31.567Z,5.57
2023-03-29T07:40:59.669Z,7.32
2023-03-29T07:43:26.873Z,7.75
2023-03-29T07:45:54.160Z,9.27
2023-03-29T07:48:21.592Z,8.68
2023-03-29T07:50:48.637Z,8.05
2023-03-29T07:53:16.006Z,7.72
2023-03-29T07:55:47.713Z,9.38
2023-03-29T07:58:15.509Z,8.75
2023-03-29T08:00:44.195Z,10.07
2023-03-29T08:03:13.335Z,10.73
2023-03-29T08:05:41.920Z,10.52
2023-03-29T08:08:09.959Z,9.27
2023-03-29T08:10:39.260Z,9.40
2023-03-29T08:13:08.514Z,7.68
2023-03-29T08:15:37.911Z,8.48
2023-03-29T08:18:05.607Z,6.70
2023-03-29T08:20:32.828Z,6.82
2023-03-29T08:22:59.975Z,7.88
2023-03-29T08:25:27.095Z,8.32
2023-03-29T08:27:54.241Z,9.50
2023-03-29T08:30:21.796Z,9.95
2023-03-29T08:32:51.643Z,7.45
2023-03-29T08:35:21.899Z,9.82
2023-03-29T08:37:48.789Z,9.75
2023-03-29T08:40:21.807Z,7.63
2023-03-29T08:43:02.124Z,6.43
2023-03-29T08:45:37.958Z,10.30
2023-03-29T08:48:24.545Z,11.98
2023-03-29T08:50:54.795Z,9.02
2023-03-29T08:53:34.702Z,11.75
2023-03-29T08:56:08.855Z,10.32
2023-03-29T08:58:37.870Z,10.77
2023-03-29T09:01:08.778Z,8.73
2023-03-29T09:03:51.153Z,8.93
2023-03-29T09:06:20.797Z,8.75
2023-03-29T09:08:49.830Z,10.50
2023-03-29T09:11:34.738Z,12.35
2023-03-29T09:14:35.712Z,9.52
2023-03-29T09:17:40.933Z,11.00
2023-03-29T09:20:38.520Z,11.20
2023-03-29T09:23:28.628Z,9.80
2023-03-29T09:26:05.779Z,10.30
2023-03-29T09:28:47.643Z,11.57
2023-03-29T09:31:21.596Z,10.35
2023-03-29T09:36:51.566Z,12.27
2023-03-29T09:39:21.188Z,16.27
2023-03-29T09:41:54.757Z,17.05
2023-03-29T09:44:33.224Z,11.60
2023-03-29T09:47:12.778Z,10.10
2023-03-29T09:49:43.839Z,11.68
2023-03-29T09:52:14.746Z,11.45
2023-03-29T09:54:41.806Z,11.85
2023-03-29T09:57:15.548Z,10.52
2023-03-29T09:59:43.942Z,10.68
2023-03-29T10:02:13.196Z,13.30
2023-03-29T10:04:42.677Z,10.95
2023-03-29T10:07:18.302Z,9.27
2023-03-29T10:09:46.623Z,8.90
2023-03-29T10:12:14.295Z,9.40
2023-03-29T10:14:46.630Z,8.13
2023-03-29T10:17:24.225Z,9.13
2023-03-29T10:19:56.035Z,6.85
2023-03-29T10:22:25.753Z,10.23
2023-03-29T10:24:55.186Z,7.47
2023-03-29T10:27:29.037Z,9.15
2023-03-29T10:29:58.471Z,9.82
2023-03-29T10:32:34.472Z,5.25
2023-03-29T10:35:48.976Z,8.05
2023-03-29T10:38:22.044Z,8.17
2023-03-29T10:40:51.875Z,7.20
2023-03-29T10:43:34.908Z,6.35
2023-03-29T10:46:19.637Z,5.30
2023-03-29T10:49:12.640Z,6.60
2023-03-29T10:51:46.896Z,4.93
2023-03-29T10:54:17.511Z,4.45
2023-03-29T10:57:08.300Z,4.75
2023-03-29T10:59:57.946Z,3.15
2023-03-29T11:02:30.902Z,6.38
2023-03-29T11:05:20.510Z,5.95
2023-03-29T11:08:06.897Z,6.47
2023-03-29T11:10:33.957Z,6.97
2023-03-29T11:13:13.453Z,4.22
2023-03-29T11:15:49.589Z,5.20
2023-03-29T11:18:41.430Z,6.88
2023-03-29T11:21:42.646Z,4.82
2023-03-29T11:24:54.923Z,6.70
2023-03-29T11:28:07.801Z,8.18
2023-03-29T11:30:43.681Z,5.47
2023-03-29T11:33:19.653Z,7.63
2023-03-29T11:35:56.513Z,4.47
2023-03-29T11:38:46.702Z,7.07
2023-03-29T11:41:28.934Z,11.40
2023-03-29T11:44:14.260Z,6.13
2023-03-29T11:46:57.028Z,5.18
2023-03-29T11:49:37.436Z,6.10
2023-03-29T11:52:39.040Z,6.47
2023-03-29T11:55:15.407Z,5.45
2023-03-29T11:57:52.941Z,4.78
2023-03-29T12:00:55.412Z,4.88
2023-03-29T12:03:40.846Z,6.78
2023-03-29T12:06:22.438Z,6.72
2023-03-29T12:09:04.246Z,6.22
2023-03-29T12:11:55.709Z,7.25
2023-03-29T12:14:30.414Z,5.25
2023-03-29T12:17:04.517Z,6.05
2023-03-29T12:19:43.346Z,5.35
2023-03-29T12:22:13.552Z,8.20
2023-03-29T12:24:43.949Z,5.57
2023-03-29T12:27:34.047Z,6.47
2023-03-29T12:30:25.925Z,4.95
2023-03-29T12:33:03.775Z,7.78
2023-03-29T12:35:37.817Z,7.43
2023-03-29T12:38:15.694Z,7.45
2023-03-29T12:40:45.821Z,6.80
2023-03-29T12:43:40.233Z,6.57
2023-03-29T12:46:26.713Z,8.05
2023-03-29T12:48:59.759Z,6.43
2023-03-29T12:51:34.844Z,8.52
2023-03-29T12:54:07.803Z,7.28
2023-03-29T12:57:02.993Z,7.97
2023-03-29T12:59:48.269Z,7.82
2023-03-29T13:02:15.337Z,8.57
2023-03-29T13:04:57.238Z,8.18
2023-03-29T13:07:24.289Z,6.82
2023-03-29T13:09:56.716Z,5.32
2023-03-29T13:12:31.437Z,6.75
2023-03-29T13:15:22.378Z,10.63
2023-03-29T13:18:09.610Z,6.50
2023-03-29T13:20:50.394Z,5.72
2023-03-29T13:23:28.602Z,6.18
2023-03-29T13:26:27.185Z,7.55
2023-03-29T13:29:16.694Z,5.13
2023-03-29T13:32:22.851Z,5.22
2023-03-29T13:35:27.856Z,7.93
2023-03-29T13:38:09.115Z,7.50
2023-03-29T13:40:44.938Z,5.20
2023-03-29T13:43:23.612Z,4.63
2023-03-29T13:45:59.703Z,6.53
2023-03-29T13:48:28.765Z,5.75
2023-03-29T13:51:20.193Z,5.30
2023-03-29T13:54:16.358Z,5.93
2023-03-29T13:57:03.881Z,6.47
2023-03-29T14:00:21.826Z,5.72
2023-03-29T14:03:05.327Z,7.07
2023-03-29T14:05:37.569Z,4.65
2023-03-29T14:08:30.269Z,6.38
2023-03-29T14:11:01.330Z,5.20
2023-03-29T14:13:29.632Z,9.05
2023-03-29T14:16:03.035Z,6.40
2023-03-29T14:18:44.694Z,10.45
2023-03-29T14:21:15.198Z,6.93
2023-03-29T14:23:46.212Z,5.35
2023-03-29T14:26:17.645Z,4.63
2023-03-29T14:28:50.643Z,6.18
2023-03-29T14:31:22.344Z,5.95
2023-03-29T14:33:57.803Z,5.13
2023-03-29T14:36:27.217Z,7.15
2023-03-29T14:39:18.564Z,5.18
2023-03-29T14:41:53.060Z,6.82
2023-03-29T14:44:26.056Z,4.63
2023-03-29T14:46:54.224Z,9.20
2023-03-29T14:49:23.292Z,6.00
2023-03-29T14:51:52.244Z,6.30
2023-03-29T14:54:32.828Z,8.02
2023-03-29T14:57:00.248Z,5.35
2023-03-29T14:59:37.462Z,4.97
2023-03-29T15:02:05.001Z,5.60
2023-03-29T15:04:36.135Z,9.05
2023-03-29T15:07:05.038Z,5.72
2023-03-29T15:09:34.989Z,5.53
2023-03-29T15:12:03.632Z,5.32
2023-03-29T15:14:38.256Z,5.05
2023-03-29T15:17:31.296Z,5.38
2023-03-29T15:20:18.666Z,7.35
2023-03-29T15:23:14.378Z,6.93
2023-03-29T15:26:29.176Z,7.82
2023-03-29T15:29:41.842Z,11.40
2023-03-29T15:32:11.650Z,6.20
2023-03-29T15:34:38.685Z,6.75
2023-03-29T15:37:05.805Z,7.63
2023-03-29T15:39:35.391Z,13.63
2023-03-29T15:42:02.529Z,10.07
2023-03-29T15:44:35.453Z,6.13
2023-03-29T15:47:02.642Z,8.88
2023-03-29T15:49:29.663Z,8.90
2023-03-29T15:51:56.774Z,10.55
2023-03-29T15:54:24.943Z,6.15
2023-03-29T15:56:57.074Z,9.82
2023-03-29T15:59:24.486Z,6.80
2023-03-29T16:01:51.841Z,9.57
2023-03-29T16:04:22.679Z,9.55
2023-03-29T16:06:53.036Z,7.75
2023-03-29T16:09:21.772Z,5.50
2023-03-29T16:11:49.689Z,8.90
2023-03-29T16:14:25.558Z,6.03
2023-03-29T16:16:53.540Z,11.27
2023-03-29T16:19:20.621Z,6.72
2023-03-29T16:21:48.272Z,8.18
2023-03-29T16:24:24.875Z,7.82
2023-03-29T16:26:54.753Z,12.00
2023-03-29T16:29:24.706Z,7.55
2023-03-29T16:31:53.184Z,7.93
2023-03-29T16:34:20.703Z,7.28
2023-03-29T16:36:47.902Z,6.15
2023-03-29T16:39:16.055Z,8.68
2023-03-29T16:41:45.192Z,7.22
2023-03-29T16:44:23.814Z,7.72
2023-03-29T16:46:54.038Z,8.85
2023-03-29T16:49:21.643Z,6.82
2023-03-29T16:51:48.979Z,8.95
2023-03-29T16:54:19.797Z,8.90
2023-03-29T16:56:47.251Z,7.43
2023-03-29T16:59:14.461Z,6.15
2023-03-29T17:01:41.646Z,7.63
2023-03-29T17:04:09.250Z,9.52
2023-03-29T17:06:36.443Z,6.57
2023-03-29T17:09:05.149Z,9.88
2023-03-29T17:11:32.394Z,10.02
2023-03-29T17:14:00.164Z,8.50
2023-03-29T17:16:29.233Z,10.27
2023-03-29T17:19:00.627Z,9.68
2023-03-29T17:21:28.972Z,14.68
2023-03-29T17:23:55.950Z,7.20
2023-03-29T17:26:22.913Z,9.02
2023-03-29T17:28:49.934Z,9.52
2023-03-29T17:31:19.174Z,10.95
2023-03-29T17:33:46.327Z,8.20
2023-03-29T17:36:13.318Z,12.60
2023-03-29T17:38:40.362Z,15.55
2023-03-29T17:41:08.414Z,17.40
2023-03-29T17:43:35.277Z,8.98
2023-03-29T17:46:02.401Z,10.00
2023-03-29T17:48:29.458Z,10.35
2023-03-29T17:50:57.869Z,9.30
2023-03-29T17:53:25.307Z,8.77
2023-03-29T17:55:52.581Z,12.05
2023-03-29T17:58:19.623Z,9.85
2023-03-29T18:00:46.550Z,10.13
2023-03-29T18:03:13.656Z,10.85
2023-03-29T18:05:40.852Z,12.38
2023-03-29T18:08:08.742Z,10.35
2023-03-29T18:10:37.370Z,11.10
2023-03-29T18:13:04.301Z,13.20
2023-03-29T18:15:31.279Z,13.07
2023-03-29T18:17:58.248Z,11.38
2023-03-29T18:20:25.268Z,11.82
2023-03-29T18:22:52.065Z,9.05
2023-03-29T18:25:20.152Z,9.45
2023-03-29T18:27:47.132Z,10.35
2023-03-29T18:30:16.685Z,11.15
2023-03-29T18:32:43.758Z,10.02
2023-03-29T18:35:12.002Z,8.15
2023-03-29T18:37:38.834Z,7.30
2023-03-29T18:40:09.339Z,6.95
2023-03-29T18:42:36.834Z,8.27
2023-03-29T18:45:04.791Z,10.32
2023-03-29T18:47:31.742Z,9.50
2023-03-29T18:49:58.578Z,9.68
2023-03-29T18:52:25.406Z,7.15
2023-03-29T18:54:52.275Z,10.68
2023-03-29T18:57:19.208Z,9.60
2023-03-29T18:59:47.458Z,9.60
2023-03-29T19:02:14.482Z,10.77
2023-03-29T19:04:42.870Z,8.80
2023-03-29T19:07:09.796Z,10.45
2023-03-29T19:09:37.795Z,9.88
2023-03-29T19:12:05.353Z,10.20
2023-03-29T19:14:36.035Z,14.40
2023-03-29T19:17:02.887Z,10.18
2023-03-29T19:19:29.727Z,8.10
2023-03-29T19:21:59.012Z,18.17
2023-03-29T19:24:29.020Z,14.60
2023-03-29T19:26:56.601Z,10.20
2023-03-29T19:29:24.070Z,9.75
2023-03-29T19:31:52.066Z,9.07
2023-03-29T19:34:23.958Z,10.80
2023-03-29T19:36:53.649Z,10.38
2023-03-29T19:39:22.050Z,9.05
2023-03-29T19:41:49.077Z,9.73
2023-03-29T19:44:17.524Z,11.32
2023-03-29T19:46:44.445Z,9.80
2023-03-29T19:49:14.011Z,12.82
2023-03-29T19:51:42.190Z,14.32
2023-03-29T19:54:12.872Z,8.60
2023-03-29T19:56:42.970Z,9.40
2023-03-29T19:59:15.606Z,12.65
2023-03-29T20:01:52.180Z,11.27
2023-03-29T20:04:21.832Z,11.23
2023-03-29T20:06:52.192Z,10.48
2023-03-29T20:09:21.170Z,15.38
2023-03-29T20:11:50.034Z,12.32
2023-03-29T20:14:17.171Z,10.65
2023-03-29T20:16:46.547Z,12.35
2023-03-29T20:19:15.537Z,10.00
2023-03-29T20:21:44.659Z,12.02
2023-03-29T20:24:12.922Z,11.32
2023-03-29T20:26:40.062Z,8.40
2023-03-29T20:29:08.078Z,11.25
2023-03-29T20:31:36.194Z,9.40
2023-03-29T20:34:03.273Z,11.27
2023-03-29T20:36:30.870Z,12.77
2023-03-29T20:38:59.372Z,10.52
2023-03-29T20:41:26.529Z,8.15
2023-03-29T20:44:00.059Z,16.33
2023-03-29T20:46:38.116Z,10.18
2023-03-29T20:49:09.058Z,9.20
2023-03-29T20:51:37.926Z,9.00
2023-03-29T20:54:07.778Z,14.07
2023-03-29T20:56:42.359Z,12.38
2023-03-29T20:59:12.660Z,13.13
2023-03-29T21:01:42.801Z,12.02
2023-03-29T21:04:10.991Z,10.73
2023-03-29T21:06:41.561Z,9.25
2023-03-29T21:09:08.711Z,11.85
2023-03-29T21:11:35.645Z,13.80
2023-03-29T21:14:02.712Z,10.63
2023-03-29T21:16:29.821Z,9.02
2023-03-29T21:18:56.980Z,8.15
2023-03-29T21:21:23.900Z,11.48
2023-03-29T21:23:51.034Z,9.48
2023-03-29T21:26:18.246Z,10.45
2023-03-29T21:28:45.210Z,10.50
2023-03-29T21:31:12.496Z,12.52
2023-03-29T21:33:39.383Z,9.13
2023-03-29T21:36:06.660Z,12.00
2023-03-29T21:38:35.598Z,12.85
2023-03-29T21:41:03.353Z,13.52
2023-03-29T21:43:30.468Z,12.25
2023-03-29T21:45:57.816Z,8.77
2023-03-29T21:48:25.001Z,11.65
2023-03-29T21:50:52.130Z,11.50
2023-03-29T21:53:19.373Z,12.57
2023-03-29T21:55:49.420Z,11.25
2023-03-29T21:58:16.750Z,11.63
2023-03-29T22:00:44.064Z,10.63
2023-03-29T22:03:11.561Z,11.88
2023-03-29T22:05:38.640Z,11.63
2023-03-29T22:08:06.717Z,9.65
2023-03-29T22:10:33.674Z,11.27
2023-03-29T22:13:01.144Z,6.85
2023-03-29T22:15:35.574Z,10.30
2023-03-29T22:18:03.714Z,8.48
2023-03-29T22:20:31.091Z,10.63
2023-03-29T22:22:58.032Z,12.95
2023-03-29T22:25:24.983Z,11.00
2023-03-29T22:27:51.917Z,11.65
2023-03-29T22:30:19.109Z,9.27
2023-03-29T22:32:46.089Z,9.77
2023-03-29T22:35:13.109Z,9.73
2023-03-29T22:37:42.036Z,9.20
2023-03-29T22:40:10.823Z,12.75
2023-03-29T22:42:37.941Z,8.50
2023-03-29T22:45:06.534Z,15.35
2023-03-29T22:47:34.336Z,8.90
2023-03-29T22:50:01.834Z,9.90
2023-03-29T22:52:28.797Z,11.85
2023-03-29T22:54:55.672Z,8.70
2023-03-29T22:57:22.818Z,10.77
2023-03-29T22:59:49.913Z,10.10
2023-03-29T23:02:17.269Z,10.38
2023-03-29T23:04:45.403Z,15.10
2023-03-29T23:07:12.420Z,12.07
2023-03-29T23:09:39.415Z,11.65
2023-03-29T23:12:06.896Z,10.18
2023-03-29T23:14:34.165Z,13.88
2023-03-29T23:17:01.066Z,11.73
2023-03-29T23:19:27.926Z,12.57
2023-03-29T23:21:55.508Z,12.20
2023-03-29T23:24:22.944Z,10.93
2023-03-29T23:26:49.741Z,10.00
2023-03-29T23:29:16.648Z,11.98
2023-03-29T23:31:44.394Z,10.50
2023-03-29T23:34:13.521Z,11.57
2023-03-29T23:36:40.758Z,11.15
2023-03-29T23:39:08.126Z,8.23
2023-03-29T23:41:35.205Z,11.18
2023-03-29T23:44:03.865Z,11.70
2023-03-29T23:46:31.497Z,14.38
2023-03-29T23:48:59.025Z,8.50
2023-03-29T23:51:28.421Z,13.68
2023-03-29T23:53:56.621Z,13.50
2023-03-29T23:56:23.609Z,11.55
2023-03-29T23:58:50.631Z,8.80
